MSC Regina — 3FGF9 — position and weather

sailwx.info

Track history (hours):
 
Tides and Currents Weather Stations Pressure Air Temp Water Temp Dewpoint Dewpoint Depression Visibility Wind Speed Wind Dir Waves Ship Positions

MSC Regina

Last reported at 2016-Nov-09 07:33 UTC. Time now 2016-Dec-03 11:45 UTC.
Position N 38°07' E 015°34'.
Warning: this ship's position is 24 days out of date.

Length 259 m; draft 10.3 m.

Type: Ship (hazmat cat A). MMSI: 357331980.

Date/timePositionNaut miles runAvg speedWind from/ knotsBaromVisibWave heightAir tempDewpointWater temp
2016-Nov-09 07:33N 38°07' E 015°34'2512.3
2016-Nov-09 05:30N 38°27' E 015°53'1 0.8
2016-Nov-09 04:06N 38°28' E 015°54'0 0.0
2016-Nov-09 02:25N 38°28' E 015°54'0 0.0
2016-Nov-08 23:30N 38°28' E 015°54'0 0.0
2016-Nov-08 22:33N 38°28' E 015°54'0 0.0
2016-Nov-08 21:33N 38°28' E 015°54'0 0.0
2016-Nov-08 20:27N 38°28' E 015°54'0 0.0
2016-Nov-08 19:33N 38°28' E 015°54'0 0.0
2016-Nov-08 18:27N 38°28' E 015°54'0 0.0
2016-Nov-08 17:33N 38°28' E 015°54'0 0.0
2016-Nov-08 15:30N 38°28' E 015°54'0 0.0
2016-Nov-08 09:33N 38°28' E 015°54'0 0.0
2016-Nov-08 06:33N 38°28' E 015°54'0 0.0
2016-Nov-08 04:33N 38°28' E 015°54'10 2.5
2016-Nov-08 00:33N 38°32' E 015°43'2 1.5
2016-Nov-07 23:31N 38°31' E 015°41'1 0.3
2016-Nov-07 19:33N 38°32' E 015°42'4 1.9
2016-Nov-07 17:33N 38°29' E 015°45'1 1.0
2016-Nov-07 16:33N 38°28' E 015°45'7 6.7
2016-Nov-07 15:33N 38°26' E 015°37'7 6.7
2016-Nov-07 14:33N 38°23' E 015°29'6 6.3
2016-Nov-07 13:33N 38°22' E 015°21'27 6.7
2016-Nov-07 09:32N 38°18' E 014°47'6 6.5
2016-Nov-07 08:33N 38°18' E 014°39'6 6.4
2016-Nov-07 07:33N 38°19' E 014°31'6 6.2
2016-Nov-07 06:31N 38°19' E 014°22'6 6.2
2016-Nov-07 05:30N 38°19' E 014°14'20 6.7
2016-Nov-07 02:33N 38°19' E 013°49'7 6.8
2016-Nov-07 01:33N 38°20' E 013°41'21 7.0
2016-Nov-06 22:33N 38°19' E 013°14'13 6.7
2016-Nov-06 20:33N 38°18' E 012°57'7 6.5
2016-Nov-06 19:33N 38°17' E 012°48'44 7.1
2016-Nov-06 13:20N 38°11' E 011°53'7 9.0
2016-Nov-06 12:33N 38°10' E 011°44'9 9.1
2016-Nov-06 11:33N 38°09' E 011°32'11 7.6
2016-Nov-06 10:05N 38°07' E 011°18'10 6.8
2016-Nov-06 08:33N 38°06' E 011°05'9 9.5
2016-Nov-06 07:33N 38°05' E 010°53'77 9.6
2016-Nov-05 23:33N 37°55' E 009°17'19 9.6
2016-Nov-05 21:33N 37°52' E 008°53'41114.2
2016-Nov-04 16:33N 36°43' E 000°23'4220.9
2016-Nov-04 14:33N 36°36' W 000°28'  
2016-Nov-01 20:32N 40°01' W 028°26'1919.4
2016-Nov-01 19:33N 40°06' W 028°50'  
Track history (hours):
 
Tides and Currents Weather Stations Pressure Air Temp Water Temp Dewpoint Dewpoint Depression Visibility Wind Speed Wind Dir Waves Ship Positions

MSC Regina

Last reported at 2016-Nov-09 07:33 UTC. Time now 2016-Dec-03 11:45 UTC.
Position N 38°07' E 015°34'.
Warning: this ship's position is 24 days out of date.

Length 259 m; draft 10.3 m.

Type: Ship (hazmat cat A). MMSI: 357331980.

Date/timePositionNaut miles runAvg speedWind from/ knotsBaromVisibWave heightAir tempDewpointWater temp
2016-Nov-09 07:33N 38°07' E 015°34'2512.3
2016-Nov-09 05:30N 38°27' E 015°53'1 0.8
2016-Nov-09 04:06N 38°28' E 015°54'0 0.0
2016-Nov-09 02:25N 38°28' E 015°54'0 0.0
2016-Nov-08 23:30N 38°28' E 015°54'0 0.0
2016-Nov-08 22:33N 38°28' E 015°54'0 0.0
2016-Nov-08 21:33N 38°28' E 015°54'0 0.0
2016-Nov-08 20:27N 38°28' E 015°54'0 0.0
2016-Nov-08 19:33N 38°28' E 015°54'0 0.0
2016-Nov-08 18:27N 38°28' E 015°54'0 0.0
2016-Nov-08 17:33N 38°28' E 015°54'0 0.0
2016-Nov-08 15:30N 38°28' E 015°54'0 0.0
2016-Nov-08 09:33N 38°28' E 015°54'0 0.0
2016-Nov-08 06:33N 38°28' E 015°54'0 0.0
2016-Nov-08 04:33N 38°28' E 015°54'10 2.5
2016-Nov-08 00:33N 38°32' E 015°43'2 1.5
2016-Nov-07 23:31N 38°31' E 015°41'1 0.3
2016-Nov-07 19:33N 38°32' E 015°42'4 1.9
2016-Nov-07 17:33N 38°29' E 015°45'1 1.0
2016-Nov-07 16:33N 38°28' E 015°45'7 6.7
2016-Nov-07 15:33N 38°26' E 015°37'7 6.7
2016-Nov-07 14:33N 38°23' E 015°29'6 6.3
2016-Nov-07 13:33N 38°22' E 015°21'27 6.7
2016-Nov-07 09:32N 38°18' E 014°47'6 6.5
2016-Nov-07 08:33N 38°18' E 014°39'6 6.4
2016-Nov-07 07:33N 38°19' E 014°31'6 6.2
2016-Nov-07 06:31N 38°19' E 014°22'6 6.2
2016-Nov-07 05:30N 38°19' E 014°14'20 6.7
2016-Nov-07 02:33N 38°19' E 013°49'7 6.8
2016-Nov-07 01:33N 38°20' E 013°41'21 7.0
2016-Nov-06 22:33N 38°19' E 013°14'13 6.7
2016-Nov-06 20:33N 38°18' E 012°57'7 6.5
2016-Nov-06 19:33N 38°17' E 012°48'44 7.1
2016-Nov-06 13:20N 38°11' E 011°53'7 9.0
2016-Nov-06 12:33N 38°10' E 011°44'9 9.1
2016-Nov-06 11:33N 38°09' E 011°32'11 7.6
2016-Nov-06 10:05N 38°07' E 011°18'10 6.8
2016-Nov-06 08:33N 38°06' E 011°05'9 9.5
2016-Nov-06 07:33N 38°05' E 010°53'77 9.6
2016-Nov-05 23:33N 37°55' E 009°17'19 9.6
2016-Nov-05 21:33N 37°52' E 008°53'41114.2
2016-Nov-04 16:33N 36°43' E 000°23'4220.9
2016-Nov-04 14:33N 36°36' W 000°28'  
2016-Nov-01 20:32N 40°01' W 028°26'1919.4
2016-Nov-01 19:33N 40°06' W 028°50'  

Dump ship's entire track history